createdAt,value
2016-11-13T11:10:47.644Z,17.99
2016-11-13T11:11:13.185Z,17.92
2016-11-13T11:11:38.751Z,17.92
2016-11-13T11:12:04.316Z,17.95
2016-11-13T11:12:29.876Z,17.95
2016-11-13T11:12:56.402Z,18
2016-11-13T11:13:24.155Z,18.03
2016-11-13T11:13:49.734Z,18.04
2016-11-13T11:14:15.357Z,18
2016-11-13T11:14:40.916Z,18.12
2016-11-13T11:15:06.494Z,18.17
2016-11-13T11:15:32.064Z,18.17
2016-11-13T11:15:57.706Z,18.17
2016-11-13T11:16:23.283Z,18.29
2016-11-13T11:16:48.848Z,18.29
2016-11-13T11:17:14.418Z,18.24
2016-11-13T11:17:40.030Z,18.33
2016-11-13T11:18:05.569Z,18.34
2016-11-13T11:18:31.728Z,18.42
2016-11-13T11:18:57.179Z,18.47
2016-11-13T11:19:22.768Z,18.43
2016-11-13T11:19:48.364Z,18.5
2016-11-13T11:20:14.384Z,18.44
2016-11-13T11:20:40.346Z,18.4
2016-11-13T11:21:05.912Z,18.42
2016-11-13T11:21:31.477Z,18.44
2016-11-13T11:21:57.049Z,18.43
2016-11-13T11:22:22.669Z,18.47
2016-11-13T11:22:48.234Z,18.54
2016-11-13T11:23:13.790Z,18.54
2016-11-13T11:23:39.366Z,18.57
2016-11-13T11:24:05.132Z,18.58
2016-11-13T11:24:30.708Z,18.58
2016-11-13T11:24:56.318Z,18.61
2016-11-13T11:25:21.880Z,18.57
2016-11-13T11:25:47.459Z,18.62
2016-11-13T11:26:13.036Z,18.58
2016-11-13T11:26:38.727Z,18.58
2016-11-13T11:27:04.289Z,18.61
2016-11-13T11:27:29.865Z,18.62
2016-11-13T11:28:36.349Z,18.65
2016-11-13T11:29:01.777Z,18.55
2016-11-13T11:29:27.322Z,18.68
2016-11-13T11:29:52.968Z,18.57
2016-11-13T11:30:18.558Z,18.61
2016-11-13T11:30:44.114Z,18.58
2016-11-13T11:31:09.718Z,18.72
2016-11-13T11:31:35.291Z,18.57
2016-11-13T11:32:00.995Z,18.54
2016-11-13T11:32:26.586Z,18.59
2016-11-13T11:32:52.193Z,18.55
2016-11-13T11:33:18.005Z,18.57
2016-11-13T11:33:43.423Z,18.58
2016-11-13T11:34:08.998Z,18.62
2016-11-13T11:34:57.718Z,18.68
2016-11-13T11:35:45.853Z,18.72
2016-11-13T11:36:11.409Z,18.72
2016-11-13T11:36:36.989Z,18.62
2016-11-13T11:37:02.550Z,18.68
2016-11-13T11:38:02.228Z,18.72
2016-11-13T11:38:27.580Z,18.65
2016-11-13T11:38:53.149Z,18.7
2016-11-13T11:39:18.877Z,18.7
2016-11-13T11:39:44.458Z,18.72
2016-11-13T11:40:10.032Z,18.72
2016-11-13T11:40:35.740Z,18.7
2016-11-13T11:41:01.313Z,18.73
2016-11-13T11:41:27.650Z,18.72
2016-11-13T11:41:53.467Z,18.74
2016-11-13T11:42:19.061Z,18.72
2016-11-13T11:42:45.042Z,18.7
2016-11-13T11:43:10.477Z,18.7
2016-11-13T11:43:36.028Z,18.7
2016-11-13T11:44:02.469Z,18.7
2016-11-13T11:44:28.029Z,18.74
2016-11-13T11:44:53.591Z,18.67
2016-11-13T11:45:19.199Z,18.7
2016-11-13T11:45:44.809Z,18.79
2016-11-13T11:46:10.410Z,18.65
2016-11-13T11:47:03.606Z,18.73
2016-11-13T11:47:29.298Z,18.72
2016-11-13T11:47:54.848Z,18.74
2016-11-13T11:48:20.431Z,18.72
2016-11-13T11:48:46.139Z,18.74
2016-11-13T11:49:11.699Z,18.79
2016-11-13T11:49:37.265Z,18.73
2016-11-13T11:50:02.833Z,18.74
2016-11-13T11:50:28.432Z,18.72
2016-11-13T11:50:54.008Z,18.73
2016-11-13T11:51:19.590Z,18.72
2016-11-13T11:51:45.251Z,18.73
2016-11-13T11:52:10.865Z,18.72
2016-11-13T11:53:03.885Z,18.72
2016-11-13T11:53:29.414Z,18.72
2016-11-13T11:54:27.498Z,18.74
2016-11-13T11:54:53.055Z,18.68
2016-11-13T11:55:18.641Z,18.68
2016-11-13T11:55:44.218Z,18.68
2016-11-13T11:56:09.809Z,18.7
2016-11-13T11:56:35.411Z,18.7
2016-11-13T11:57:35.143Z,18.72
2016-11-13T11:58:24.628Z,18.7
2016-11-13T11:59:12.798Z,18.61
2016-11-13T11:59:38.569Z,18.7
2016-11-13T12:00:04.326Z,18.72
2016-11-13T12:00:29.881Z,18.68
2016-11-13T12:00:55.443Z,18.67
2016-11-13T12:01:21.016Z,18.64
2016-11-13T12:01:46.587Z,18.64
2016-11-13T12:02:12.153Z,18.59
2016-11-13T12:02:38.057Z,18.62
2016-11-13T12:03:03.639Z,18.67
2016-11-13T12:03:29.221Z,18.62
2016-11-13T12:03:54.793Z,18.62
2016-11-13T12:04:20.434Z,18.62
2016-11-13T12:04:45.993Z,18.61
2016-11-13T12:05:11.599Z,18.57
2016-11-13T12:05:37.276Z,18.67
2016-11-13T12:06:02.849Z,18.59
2016-11-13T12:06:28.420Z,18.61
2016-11-13T12:06:53.982Z,18.64
2016-11-13T12:07:19.625Z,18.62
2016-11-13T12:07:45.215Z,18.68
2016-11-13T12:08:10.826Z,18.61
2016-11-13T12:09:09.038Z,18.59
2016-11-13T12:09:34.596Z,18.59
2016-11-13T12:10:00.210Z,18.58
2016-11-13T12:10:25.762Z,18.58
2016-11-13T12:10:51.344Z,18.55
2016-11-13T12:11:17.012Z,18.59
2016-11-13T12:11:44.148Z,18.58
2016-11-13T12:12:09.739Z,18.55
2016-11-13T12:12:35.372Z,18.57
2016-11-13T12:13:00.991Z,18.64
2016-11-13T12:13:26.580Z,18.68
2016-11-13T12:13:52.189Z,18.58
2016-11-13T12:14:17.747Z,18.55
2016-11-13T12:14:43.301Z,18.57
2016-11-13T12:15:09.674Z,18.62
2016-11-13T12:16:09.700Z,18.62
2016-11-13T12:16:59.351Z,18.55
2016-11-13T12:17:24.879Z,18.58
2016-11-13T12:17:50.517Z,18.59
2016-11-13T12:18:16.191Z,18.58
2016-11-13T12:19:17.540Z,18.55
2016-11-13T12:19:50.092Z,18.55
2016-11-13T12:20:37.909Z,18.54
2016-11-13T12:21:03.472Z,18.61
2016-11-13T12:21:29.106Z,18.54
2016-11-13T12:21:54.812Z,18.57
2016-11-13T12:22:20.417Z,18.57
2016-11-13T12:22:46.036Z,18.47
2016-11-13T12:23:11.615Z,18.5
2016-11-13T12:23:37.244Z,18.54
2016-11-13T12:24:02.806Z,18.49
2016-11-13T12:24:28.387Z,18.54
2016-11-13T12:24:53.950Z,18.5
2016-11-13T12:26:06.278Z,18.58
2016-11-13T12:26:31.845Z,18.47
2016-11-13T12:26:57.441Z,18.52
2016-11-13T12:27:23.095Z,18.44
2016-11-13T12:28:31.515Z,18.54
2016-11-13T12:28:57.114Z,18.55
2016-11-13T12:29:22.699Z,18.54
2016-11-13T12:29:48.253Z,18.46
2016-11-13T12:30:13.878Z,18.5
2016-11-13T12:30:39.458Z,18.58
2016-11-13T12:31:05.102Z,18.52
2016-11-13T12:31:30.686Z,18.57
2016-11-13T12:31:56.269Z,18.55
2016-11-13T12:32:21.861Z,18.55
2016-11-13T12:32:47.480Z,18.54
2016-11-13T12:33:13.075Z,18.61
2016-11-13T12:33:38.646Z,18.61
2016-11-13T12:34:04.328Z,18.58
2016-11-13T12:34:29.909Z,18.59
2016-11-13T12:34:55.456Z,18.64
2016-11-13T12:35:21.075Z,18.61
2016-11-13T12:35:46.689Z,18.58
2016-11-13T12:36:16.649Z,18.54
2016-11-13T12:37:17.017Z,18.65
2016-11-13T12:38:10.010Z,18.62
2016-11-13T12:38:35.621Z,18.58
2016-11-13T12:39:25.044Z,18.54
2016-11-13T12:39:56.177Z,18.54
2016-11-13T12:41:10.736Z,18.57
2016-11-13T12:42:04.556Z,18.65
2016-11-13T12:42:30.102Z,18.61
2016-11-13T12:42:55.672Z,18.62
2016-11-13T12:43:21.238Z,18.58
2016-11-13T12:44:09.121Z,18.61
2016-11-13T12:44:34.729Z,18.58
2016-11-13T12:45:00.305Z,18.57
2016-11-13T12:45:25.869Z,18.61
2016-11-13T12:45:51.567Z,18.57
2016-11-13T12:46:17.189Z,18.65
2016-11-13T12:46:42.767Z,18.61
2016-11-13T12:47:08.335Z,18.68
2016-11-13T12:47:33.940Z,18.54
2016-11-13T12:47:59.519Z,18.58
2016-11-13T12:48:25.089Z,18.65
2016-11-13T12:48:50.607Z,18.57
2016-11-13T12:49:16.675Z,18.58
2016-11-13T12:49:44.387Z,18.62
2016-11-13T12:50:09.920Z,18.65
2016-11-13T12:50:36.797Z,18.61
2016-11-13T12:51:43.213Z,18.61
2016-11-13T12:52:08.374Z,18.59
2016-11-13T12:52:33.945Z,18.61
2016-11-13T12:52:59.529Z,18.59
2016-11-13T12:53:25.243Z,18.62
2016-11-13T12:53:53.524Z,18.67
2016-11-13T12:55:00.116Z,18.59
2016-11-13T12:55:25.527Z,18.65
2016-11-13T12:55:51.196Z,18.65
2016-11-13T12:56:16.758Z,18.68
2016-11-13T12:56:42.336Z,18.68
2016-11-13T12:57:07.919Z,18.57
2016-11-13T12:57:33.472Z,18.65
2016-11-13T12:57:59.097Z,18.72
2016-11-13T12:58:24.744Z,18.57
2016-11-13T12:58:50.320Z,18.55
2016-11-13T12:59:15.861Z,18.65
2016-11-13T12:59:41.455Z,18.58
2016-11-13T13:00:29.293Z,18.68
2016-11-13T13:00:56.072Z,18.57
2016-11-13T13:01:21.639Z,18.59
2016-11-13T13:01:47.250Z,18.54
2016-11-13T13:02:12.822Z,18.68
2016-11-13T13:02:38.399Z,18.67
2016-11-13T13:03:03.959Z,18.58
2016-11-13T13:03:29.523Z,18.54
2016-11-13T13:03:56.737Z,18.59
2016-11-13T13:04:22.771Z,18.67
2016-11-13T13:04:50.066Z,18.58
2016-11-13T13:05:17.547Z,18.62
2016-11-13T13:05:43.109Z,18.59
2016-11-13T13:06:08.656Z,18.57
2016-11-13T13:06:34.224Z,18.52
2016-11-13T13:07:00.660Z,18.58
2016-11-13T13:07:26.247Z,18.58
2016-11-13T13:07:51.808Z,18.61
2016-11-13T13:08:17.385Z,18.61
2016-11-13T13:08:43.002Z,18.59
2016-11-13T13:09:08.576Z,18.57
2016-11-13T13:09:34.249Z,18.55
2016-11-13T13:09:59.821Z,18.55
2016-11-13T13:10:25.442Z,18.44
2016-11-13T13:10:51.010Z,18.55
2016-11-13T13:11:16.701Z,18.54
2016-11-13T13:11:42.285Z,18.58
2016-11-13T13:12:09.377Z,18.49
2016-11-13T13:12:37.498Z,18.61
2016-11-13T13:13:37.838Z,18.49
2016-11-13T13:14:03.398Z,18.55
2016-11-13T13:14:30.090Z,18.49
2016-11-13T13:14:58.071Z,18.5
2016-11-13T13:15:23.962Z,18.47
2016-11-13T13:15:49.547Z,18.5
2016-11-13T13:16:15.275Z,18.5
2016-11-13T13:16:40.854Z,18.44
2016-11-13T13:17:09.575Z,18.43
2016-11-13T13:17:35.405Z,18.43
2016-11-13T13:18:00.986Z,18.46
2016-11-13T13:18:26.583Z,18.43
2016-11-13T13:18:52.193Z,18.42
2016-11-13T13:19:17.762Z,18.42
2016-11-13T13:19:43.333Z,18.43
2016-11-13T13:20:08.887Z,18.43
2016-11-13T13:20:34.469Z,18.46
2016-11-13T13:21:00.047Z,18.39
2016-11-13T13:21:25.614Z,18.37
2016-11-13T13:21:51.148Z,18.39
2016-11-13T13:22:17.790Z,18.42
2016-11-13T13:23:05.823Z,18.36
2016-11-13T13:23:31.414Z,18.39
2016-11-13T13:23:56.980Z,18.43
2016-11-13T13:24:22.553Z,18.4
2016-11-13T13:24:48.148Z,18.36
2016-11-13T13:25:13.727Z,18.39
2016-11-13T13:25:39.293Z,18.31
2016-11-13T13:26:04.860Z,18.33
2016-11-13T13:26:30.579Z,18.33
2016-11-13T13:26:56.148Z,18.39
2016-11-13T13:27:21.714Z,18.37
2016-11-13T13:27:47.285Z,18.37
2016-11-13T13:28:12.932Z,18.33
2016-11-13T13:28:38.488Z,18.39
2016-11-13T13:29:04.036Z,18.37
2016-11-13T13:29:29.594Z,18.34
2016-11-13T13:29:55.329Z,18.33
2016-11-13T13:30:20.921Z,18.33
2016-11-13T13:30:46.494Z,18.28
2016-11-13T13:31:12.063Z,18.33
2016-11-13T13:31:37.603Z,18.27
2016-11-13T13:32:03.205Z,18.29
2016-11-13T13:32:28.921Z,18.33
2016-11-13T13:32:54.474Z,18.21
2016-11-13T13:33:20.018Z,18.27
2016-11-13T13:33:45.587Z,18.27
2016-11-13T13:34:11.202Z,18.25
2016-11-13T13:34:36.762Z,18.27
2016-11-13T13:35:02.304Z,18.27
2016-11-13T13:35:27.861Z,18.27
2016-11-13T13:35:53.485Z,18.21
2016-11-13T13:36:19.052Z,18.17
2016-11-13T13:36:44.596Z,18.19
2016-11-13T13:37:10.133Z,18.22
2016-11-13T13:37:36.230Z,18.21
2016-11-13T13:38:01.427Z,18.21
2016-11-13T13:38:26.990Z,18.22
2016-11-13T13:38:52.557Z,18.22
2016-11-13T13:39:18.148Z,18.19
2016-11-13T13:39:43.682Z,18.19
2016-11-13T13:40:09.242Z,18.19
2016-11-13T13:40:34.909Z,18.22
2016-11-13T13:41:00.466Z,18.18
2016-11-13T13:41:26.066Z,18.19
2016-11-13T13:41:51.646Z,18.1
2016-11-13T13:42:17.205Z,18.15
2016-11-13T13:42:42.755Z,18.18
2016-11-13T13:43:08.360Z,18.07
2016-11-13T13:43:33.918Z,18.17
2016-11-13T13:43:59.467Z,18.22
2016-11-13T13:44:25.138Z,18.09
2016-11-13T13:44:50.691Z,18.07
2016-11-13T13:45:16.273Z,18.13
2016-11-13T13:45:41.973Z,18.21
2016-11-13T13:46:07.519Z,18.15
2016-11-13T13:46:33.091Z,18.21
2016-11-13T13:46:58.661Z,18.12
2016-11-13T13:47:24.226Z,18.15
2016-11-13T13:47:49.874Z,18.12
2016-11-13T13:48:15.400Z,18.22
2016-11-13T13:48:40.967Z,18.17
2016-11-13T13:49:06.539Z,18.24
2016-11-13T13:49:32.070Z,18.21
2016-11-13T13:49:57.696Z,18.15
2016-11-13T13:50:23.267Z,18.18
2016-11-13T13:50:48.828Z,18.22
2016-11-13T13:51:14.378Z,18.24
2016-11-13T13:51:39.918Z,18.22
2016-11-13T13:52:05.468Z,18.17
2016-11-13T13:52:31.009Z,18.22
2016-11-13T13:52:56.571Z,18.18
2016-11-13T13:53:22.116Z,18.19
2016-11-13T13:53:47.888Z,18.18
2016-11-13T13:54:13.458Z,18.17
2016-11-13T13:54:39.056Z,18.17
2016-11-13T13:55:04.626Z,18.17
2016-11-13T13:55:30.171Z,18.18
2016-11-13T13:55:55.724Z,18.28
2016-11-13T13:56:21.466Z,18.17
2016-11-13T13:56:47.008Z,18.22
2016-11-13T13:57:12.578Z,18.33
2016-11-13T13:57:38.246Z,18.15
2016-11-13T13:58:03.850Z,18.27
2016-11-13T13:58:29.370Z,18.29
2016-11-13T13:58:54.951Z,18.27
2016-11-13T13:59:20.518Z,18.31
2016-11-13T13:59:46.271Z,18.25
2016-11-13T14:00:11.851Z,18.28
2016-11-13T14:00:37.451Z,18.25
2016-11-13T14:01:03.013Z,18.28
2016-11-13T14:01:28.579Z,18.24
2016-11-13T14:01:54.191Z,18.27
2016-11-13T14:02:19.825Z,18.37
2016-11-13T14:02:45.398Z,18.37
2016-11-13T14:03:11.110Z,18.33
2016-11-13T14:03:36.663Z,18.4
2016-11-13T14:04:02.221Z,18.4
2016-11-13T14:04:27.795Z,18.4
2016-11-13T14:04:53.488Z,18.42
2016-11-13T14:05:19.060Z,18.42
2016-11-13T14:05:44.595Z,18.42
2016-11-13T14:06:10.163Z,18.44
2016-11-13T14:06:35.699Z,18.49
2016-11-13T14:07:01.253Z,18.44
2016-11-13T14:07:26.829Z,18.57
2016-11-13T14:07:52.400Z,18.5
2016-11-13T14:08:17.979Z,18.49
2016-11-13T14:08:43.530Z,18.49
2016-11-13T14:09:09.114Z,18.57
2016-11-13T14:09:34.679Z,18.59
2016-11-13T14:10:00.233Z,18.54
2016-11-13T14:10:25.803Z,18.55
2016-11-13T14:10:51.381Z,18.62
2016-11-13T14:11:17.037Z,18.64
2016-11-13T14:11:42.611Z,18.65
2016-11-13T14:12:08.236Z,18.65
2016-11-13T14:12:33.871Z,18.57
2016-11-13T14:12:59.421Z,18.62
2016-11-13T14:13:25.101Z,18.59
2016-11-13T14:13:50.654Z,18.58
2016-11-13T14:14:16.219Z,18.64
2016-11-13T14:14:41.819Z,18.57
2016-11-13T14:15:07.456Z,18.61
2016-11-13T14:15:33.098Z,18.57
2016-11-13T14:15:58.743Z,18.7
2016-11-13T14:16:24.300Z,18.57
2016-11-13T14:16:49.946Z,18.7
2016-11-13T14:17:15.635Z,18.58
2016-11-13T14:17:41.183Z,18.58
2016-11-13T14:18:06.719Z,18.62
2016-11-13T14:18:32.301Z,18.58
2016-11-13T14:18:57.895Z,18.61
2016-11-13T14:19:23.480Z,18.61
2016-11-13T14:19:49.039Z,18.61
2016-11-13T14:20:14.626Z,18.64
2016-11-13T14:20:40.328Z,18.59
2016-11-13T14:21:05.883Z,18.67
2016-11-13T14:21:31.447Z,18.68
2016-11-13T14:21:57.107Z,18.68
2016-11-13T14:22:22.708Z,18.62
2016-11-13T14:22:48.322Z,18.68
2016-11-13T14:23:13.879Z,18.61
2016-11-13T14:23:39.493Z,18.7
2016-11-13T14:24:05.080Z,18.67
2016-11-13T14:24:30.636Z,18.7
2016-11-13T14:24:56.178Z,18.7
2016-11-13T14:25:21.889Z,18.72
2016-11-13T14:25:47.439Z,18.73
2016-11-13T14:26:13.018Z,18.68
2016-11-13T14:26:38.717Z,18.72
2016-11-13T14:27:04.318Z,18.7
2016-11-13T14:27:29.878Z,18.76
2016-11-13T14:27:55.475Z,18.68
2016-11-13T14:28:21.111Z,18.65
2016-11-13T14:28:46.696Z,18.73
2016-11-13T14:29:12.315Z,18.65
2016-11-13T14:29:37.882Z,18.68
2016-11-13T14:30:03.460Z,18.72
2016-11-13T14:30:29.031Z,18.7
2016-11-13T14:30:54.612Z,18.74
2016-11-13T14:31:20.186Z,18.73
2016-11-13T14:31:45.741Z,18.73
2016-11-13T14:32:11.340Z,18.68
2016-11-13T14:32:36.942Z,18.74
2016-11-13T14:33:02.516Z,18.77
2016-11-13T14:33:28.089Z,18.7
2016-11-13T14:33:59.690Z,18.72
2016-11-13T14:34:54.260Z,18.77
2016-11-13T14:35:19.822Z,18.72
2016-11-13T14:35:45.398Z,18.8
2016-11-13T14:36:10.950Z,18.82
2016-11-13T14:36:36.732Z,18.76
2016-11-13T14:37:02.428Z,18.73
2016-11-13T14:37:28.006Z,18.74
2016-11-13T14:37:53.690Z,18.76
2016-11-13T14:38:19.321Z,18.79
2016-11-13T14:38:44.952Z,18.8
2016-11-13T14:39:10.534Z,18.86
2016-11-13T14:39:36.155Z,18.83
2016-11-13T14:40:01.719Z,18.92
2016-11-13T14:40:27.313Z,18.87
2016-11-13T14:40:53.017Z,18.91
2016-11-13T14:41:40.875Z,18.98
2016-11-13T14:42:06.451Z,18.98
2016-11-13T14:42:32.019Z,19.08
2016-11-13T14:42:57.675Z,19.02
2016-11-13T14:43:23.230Z,19.08
2016-11-13T14:43:48.803Z,19.14
2016-11-13T14:44:14.401Z,19.1
2016-11-13T14:44:39.987Z,19.13
2016-11-13T14:45:05.587Z,19.08
2016-11-13T14:45:31.154Z,19.15
2016-11-13T14:45:56.853Z,19.24
2016-11-13T14:46:22.538Z,19.28
2016-11-13T14:46:48.081Z,19.17
2016-11-13T14:47:13.707Z,19.24
2016-11-13T14:47:39.276Z,19.23
2016-11-13T14:48:04.869Z,19.21
2016-11-13T14:48:30.594Z,19.29
2016-11-13T14:49:02.702Z,19.23
2016-11-13T14:49:52.764Z,19.21
2016-11-13T14:50:47.842Z,19.24
2016-11-13T14:51:13.448Z,19.28
2016-11-13T14:51:38.979Z,19.2
2016-11-13T14:52:04.546Z,19.21
2016-11-13T14:52:30.128Z,19.25
2016-11-13T14:52:55.838Z,19.23
2016-11-13T14:53:21.365Z,19.28
2016-11-13T14:53:46.940Z,19.21
2016-11-13T14:54:12.839Z,19.21
2016-11-13T14:54:38.380Z,19.18
2016-11-13T14:55:03.951Z,19.28
2016-11-13T14:56:07.237Z,19.13
2016-11-13T14:56:32.796Z,19.2
2016-11-13T14:56:58.364Z,19.1
2016-11-13T14:57:23.911Z,19.13
2016-11-13T14:58:32.199Z,19.14
2016-11-13T14:58:57.868Z,19.11
2016-11-13T14:59:23.458Z,19.14
2016-11-13T14:59:49.041Z,19.06
2016-11-13T15:00:14.711Z,19.05
2016-11-13T15:00:40.300Z,18.97
2016-11-13T15:01:09.199Z,18.9
2016-11-13T15:01:42.194Z,18.98
2016-11-13T15:02:12.651Z,18.99
2016-11-13T15:02:38.266Z,18.91
2016-11-13T15:03:03.849Z,18.86
2016-11-13T15:03:29.399Z,18.83
2016-11-13T15:03:54.947Z,18.9
2016-11-13T15:04:20.498Z,18.74
2016-11-13T15:04:46.058Z,18.79
2016-11-13T15:05:11.616Z,18.77
2016-11-13T15:05:37.218Z,18.72
2016-11-13T15:06:02.885Z,18.65
2016-11-13T15:06:28.440Z,18.68
2016-11-13T15:06:54.014Z,18.61
2016-11-13T15:07:52.748Z,18.65
2016-11-13T15:08:48.837Z,18.54
2016-11-13T15:09:20.551Z,18.55
2016-11-13T15:10:22.966Z,18.5
2016-11-13T15:11:17.909Z,18.43
2016-11-13T15:11:43.425Z,18.4
2016-11-13T15:12:12.183Z,18.42
2016-11-13T15:12:37.745Z,18.34
2016-11-13T15:13:09.610Z,18.31
2016-11-13T15:13:42.107Z,18.34
2016-11-13T15:14:07.612Z,18.33
2016-11-13T15:14:33.217Z,18.37
2016-11-13T15:14:58.802Z,18.31
2016-11-13T15:15:24.466Z,18.29
2016-11-13T15:15:50.151Z,18.28
2016-11-13T15:16:15.698Z,18.25
2016-11-13T15:16:41.393Z,18.17
2016-11-13T15:17:06.941Z,18.22
2016-11-13T15:17:32.643Z,18.19
2016-11-13T15:17:58.234Z,18.15
2016-11-13T15:18:23.800Z,18.15
2016-11-13T15:18:49.384Z,18.12
2016-11-13T15:19:14.956Z,18.18
2016-11-13T15:19:40.517Z,18.04
2016-11-13T15:20:06.093Z,18.09
2016-11-13T15:20:31.661Z,18.02
2016-11-13T15:20:57.400Z,18
2016-11-13T15:21:23.007Z,17.99
2016-11-13T15:21:48.553Z,17.97
2016-11-13T15:22:16.111Z,17.95
2016-11-13T15:23:21.242Z,17.97
2016-11-13T15:23:46.255Z,17.94
2016-11-13T15:24:12.380Z,17.94
2016-11-13T15:24:38.008Z,17.95
2016-11-13T15:25:03.663Z,17.95
2016-11-13T15:25:29.252Z,17.87
2016-11-13T15:25:54.803Z,17.84
2016-11-13T15:26:20.356Z,17.79
2016-11-13T15:26:45.899Z,17.76
2016-11-13T15:27:11.458Z,17.78
2016-11-13T15:27:37.077Z,17.73
2016-11-13T15:28:04.687Z,17.73
2016-11-13T15:29:05.839Z,17.66
2016-11-13T15:29:31.398Z,17.67
2016-11-13T15:29:56.980Z,17.64
2016-11-13T15:30:22.604Z,17.66
2016-11-13T15:30:48.176Z,17.7
2016-11-13T15:31:13.790Z,17.63
2016-11-13T15:31:39.353Z,17.59
2016-11-13T15:32:04.945Z,17.63
2016-11-13T15:32:30.502Z,17.62
2016-11-13T15:32:56.105Z,17.51
2016-11-13T15:33:21.696Z,17.59
2016-11-13T15:33:47.274Z,17.57
2016-11-13T15:34:13.034Z,17.59
2016-11-13T15:34:38.620Z,17.51
2016-11-13T15:35:04.191Z,17.53
2016-11-13T15:35:29.756Z,17.46
2016-11-13T15:35:55.373Z,17.46
2016-11-13T15:36:20.928Z,17.43
2016-11-13T15:36:46.517Z,17.44
2016-11-13T15:37:12.130Z,17.41
2016-11-13T15:37:37.672Z,17.43
2016-11-13T15:38:03.244Z,17.36
2016-11-13T15:38:28.786Z,17.36
2016-11-13T15:38:54.361Z,17.38
2016-11-13T15:39:19.922Z,17.35
2016-11-13T15:39:45.489Z,17.28
2016-11-13T15:40:11.057Z,17.41
2016-11-13T15:40:36.654Z,17.35
2016-11-13T15:41:02.215Z,17.4
2016-11-13T15:41:27.805Z,17.35
2016-11-13T15:41:53.404Z,17.3
2016-11-13T15:42:18.971Z,17.25
2016-11-13T15:43:27.378Z,17.26
2016-11-13T15:43:52.968Z,17.22
2016-11-13T15:44:18.518Z,17.25
2016-11-13T15:44:44.108Z,17.22
2016-11-13T15:45:09.671Z,17.23
2016-11-13T15:45:35.251Z,17.22
2016-11-13T15:46:00.825Z,17.22
2016-11-13T15:46:26.421Z,17.26
2016-11-13T15:46:52.003Z,17.13
2016-11-13T15:47:17.572Z,17.2
2016-11-13T15:47:43.133Z,17.14
2016-11-13T15:48:08.667Z,17.11
2016-11-13T15:48:34.240Z,17.17
2016-11-13T15:48:59.824Z,17.13
2016-11-13T15:49:25.402Z,17.17
2016-11-13T15:49:50.972Z,17.1
2016-11-13T15:50:16.573Z,17.11
2016-11-13T15:50:42.140Z,17.15
2016-11-13T15:51:07.706Z,17.14
2016-11-13T15:51:33.649Z,17.15
2016-11-13T15:51:59.187Z,17.07
2016-11-13T15:52:24.879Z,17.08
2016-11-13T15:52:50.443Z,17.13
2016-11-13T15:53:16.008Z,17.07
2016-11-13T15:53:41.628Z,17.07
2016-11-13T15:54:07.179Z,17.08
2016-11-13T15:54:32.809Z,17.03
2016-11-13T15:54:58.337Z,17.15
2016-11-13T15:55:46.218Z,17.13
2016-11-13T15:56:11.877Z,17.07
2016-11-13T15:56:37.434Z,17.08
2016-11-13T15:57:03.017Z,17.1
2016-11-13T15:57:28.748Z,17.14
2016-11-13T15:57:54.308Z,17.08
2016-11-13T15:58:19.861Z,17.06
2016-11-13T15:58:45.482Z,17.04
2016-11-13T15:59:11.031Z,17.07
2016-11-13T15:59:36.598Z,17.06
2016-11-13T16:00:02.183Z,17.1
2016-11-13T16:00:27.765Z,17.13
2016-11-13T16:00:53.332Z,17.08
2016-11-13T16:01:18.880Z,17.07
2016-11-13T16:01:44.427Z,17.11
2016-11-13T16:02:10.077Z,17.08
2016-11-13T16:02:35.619Z,17.04
2016-11-13T16:03:01.210Z,17
2016-11-13T16:03:26.823Z,17.04
2016-11-13T16:03:52.382Z,17
2016-11-13T16:04:17.957Z,16.98
2016-11-13T16:04:43.520Z,16.99
2016-11-13T16:05:09.138Z,17
2016-11-13T16:06:02.211Z,17
2016-11-13T16:06:50.067Z,16.98
2016-11-13T16:07:15.622Z,16.99
2016-11-13T16:07:41.215Z,17.06
2016-11-13T16:08:06.771Z,16.96
2016-11-13T16:08:32.384Z,17.04
2016-11-13T16:08:57.960Z,17
2016-11-13T16:09:23.544Z,17
2016-11-13T16:09:49.162Z,17.04
2016-11-13T16:10:14.722Z,16.99
2016-11-13T16:11:08.028Z,16.98
2016-11-13T16:11:33.683Z,16.86
2016-11-13T16:12:37.119Z,16.96
2016-11-13T16:13:02.653Z,16.89
2016-11-13T16:13:28.213Z,16.85
2016-11-13T16:13:53.928Z,16.9
2016-11-13T16:14:19.491Z,16.9
2016-11-13T16:14:45.064Z,16.93
2016-11-13T16:15:43.279Z,16.93
2016-11-13T16:16:08.880Z,16.96
2016-11-13T16:16:34.470Z,16.99
2016-11-13T16:17:00.025Z,16.86
2016-11-13T16:17:25.638Z,16.98
2016-11-13T16:17:51.219Z,16.8
2016-11-13T16:18:16.791Z,17
2016-11-13T16:18:42.371Z,16.93
2016-11-13T16:19:07.999Z,16.88
2016-11-13T16:19:33.576Z,16.98
2016-11-13T16:19:59.137Z,16.93
2016-11-13T16:20:24.706Z,16.95
2016-11-13T16:20:50.288Z,16.96
2016-11-13T16:21:15.834Z,16.93
2016-11-13T16:21:41.401Z,16.92
2016-11-13T16:22:06.978Z,16.96
2016-11-13T16:22:32.571Z,16.92
2016-11-13T16:22:58.169Z,16.99
2016-11-13T16:23:23.931Z,16.93
2016-11-13T16:23:49.497Z,16.95
2016-11-13T16:24:15.121Z,16.89
2016-11-13T16:25:03.101Z,16.93
2016-11-13T16:25:28.877Z,16.9
2016-11-13T16:25:54.428Z,16.89
2016-11-13T16:26:47.493Z,16.89
2016-11-13T16:27:13.098Z,16.96
2016-11-13T16:27:38.782Z,16.89
2016-11-13T16:28:04.399Z,16.93
2016-11-13T16:28:30.051Z,16.93
2016-11-13T16:28:55.654Z,16.9
2016-11-13T16:29:21.217Z,16.96
2016-11-13T16:29:46.787Z,16.93
2016-11-13T16:30:12.363Z,16.95
2016-11-13T16:30:37.926Z,16.99
2016-11-13T16:31:03.497Z,16.93
2016-11-13T16:31:29.108Z,16.98
2016-11-13T16:31:54.699Z,16.93
2016-11-13T16:32:20.254Z,16.98
2016-11-13T16:32:45.853Z,16.93
2016-11-13T16:33:11.403Z,16.93
2016-11-13T16:33:36.979Z,16.95
2016-11-13T16:34:02.571Z,16.92
2016-11-13T16:34:28.136Z,16.92
2016-11-13T16:34:53.714Z,16.95
2016-11-13T16:35:19.267Z,16.95
2016-11-13T16:35:44.813Z,16.89
2016-11-13T16:36:10.412Z,16.93
2016-11-13T16:36:35.973Z,16.89
2016-11-13T16:37:01.550Z,16.89
2016-11-13T16:37:27.168Z,16.88
2016-11-13T16:37:52.798Z,16.88
2016-11-13T16:38:18.384Z,16.95
2016-11-13T16:38:43.946Z,16.88
2016-11-13T16:39:09.571Z,16.9
2016-11-13T16:39:35.210Z,16.95
2016-11-13T16:40:00.784Z,16.9
2016-11-13T16:40:26.337Z,16.81
2016-11-13T16:40:51.987Z,16.85
2016-11-13T16:41:17.552Z,16.77
2016-11-13T16:41:43.142Z,16.8
2016-11-13T16:42:08.731Z,16.93
2016-11-13T16:42:34.447Z,16.8
2016-11-13T16:43:00.019Z,16.8
2016-11-13T16:43:25.623Z,16.81
2016-11-13T16:43:51.192Z,16.78
2016-11-13T16:44:16.779Z,16.78
2016-11-13T16:44:42.333Z,16.78
2016-11-13T16:45:07.951Z,16.73
2016-11-13T16:45:33.529Z,16.74
2016-11-13T16:45:59.109Z,16.75
2016-11-13T16:46:24.687Z,16.77
2016-11-13T16:46:50.282Z,16.74
2016-11-13T16:47:15.850Z,16.78
2016-11-13T16:47:41.430Z,16.68
2016-11-13T16:48:07.006Z,16.74
2016-11-13T16:48:32.626Z,16.71
2016-11-13T16:48:58.243Z,16.71
2016-11-13T16:49:23.811Z,16.71
2016-11-13T16:49:49.347Z,16.71
2016-11-13T16:50:14.920Z,16.77
2016-11-13T16:50:40.506Z,16.68
2016-11-13T16:51:10.229Z,16.68
2016-11-13T16:51:32.335Z,16.7
2016-11-13T16:51:57.897Z,16.67
2016-11-13T16:52:23.939Z,16.63
2016-11-13T16:52:49.495Z,16.68
2016-11-13T16:53:15.070Z,16.67
2016-11-13T16:53:40.783Z,16.68
2016-11-13T16:54:06.347Z,16.65
2016-11-13T16:54:31.922Z,16.7
2016-11-13T16:54:57.475Z,16.65
2016-11-13T16:55:23.088Z,16.63
2016-11-13T16:55:48.659Z,16.67
2016-11-13T16:56:14.232Z,16.63
2016-11-13T16:56:39.789Z,16.67
2016-11-13T16:57:05.347Z,16.6
2016-11-13T16:57:30.920Z,16.6
2016-11-13T16:57:56.487Z,16.62
2016-11-13T16:58:22.050Z,16.65
2016-11-13T16:58:47.605Z,16.53
2016-11-13T16:59:13.181Z,16.62
2016-11-13T16:59:38.778Z,16.58
2016-11-13T17:00:04.510Z,16.53
2016-11-13T17:00:30.154Z,16.58
2016-11-13T17:00:55.762Z,16.63
2016-11-13T17:01:21.338Z,16.59
2016-11-13T17:01:46.920Z,16.48
2016-11-13T17:02:12.490Z,16.65
2016-11-13T17:02:38.081Z,16.56
2016-11-13T17:03:03.681Z,16.58
2016-11-13T17:03:29.360Z,16.6
2016-11-13T17:03:54.917Z,16.53
2016-11-13T17:04:20.610Z,16.56
2016-11-13T17:04:46.228Z,16.45
2016-11-13T17:05:11.819Z,16.49
2016-11-13T17:05:37.444Z,16.45
2016-11-13T17:06:03.101Z,16.58
2016-11-13T17:06:28.691Z,16.53
2016-11-13T17:06:54.351Z,16.45
2016-11-13T17:07:19.940Z,16.49
2016-11-13T17:07:45.519Z,16.44
2016-11-13T17:08:11.079Z,16.45
2016-11-13T17:08:36.649Z,16.48